sensor_id;sensor_type;location;lat;lon;timestamp;pressure;altitude;pressure_sealevel;temperature;humidity
54262;BME280;40174;52.364;6.452;2023-04-16T00:02:03;101837.97;;;7.90;100.00
54262;BME280;40174;52.364;6.452;2023-04-16T00:04:30;101849.28;;;7.92;100.00
54262;BME280;40174;52.364;6.452;2023-04-16T00:06:56;101845.81;;;7.91;100.00
54262;BME280;40174;52.364;6.452;2023-04-16T00:09:24;101847.56;;;7.91;100.00
54262;BME280;40174;52.364;6.452;2023-04-16T00:11:50;101843.16;;;7.91;100.00
54262;BME280;40174;52.364;6.452;2023-04-16T00:14:17;101841.44;;;7.90;100.00
54262;BME280;40174;52.364;6.452;2023-04-16T00:16:43;101849.34;;;7.90;100.00
54262;BME280;40174;52.364;6.452;2023-04-16T00:19:10;101844.94;;;7.91;100.00
54262;BME280;40174;52.364;6.452;2023-04-16T00:21:36;101851.97;;;7.90;100.00
54262;BME280;40174;52.364;6.452;2023-04-16T00:24:02;101847.50;;;7.93;100.00
54262;BME280;40174;52.364;6.452;2023-04-16T00:26:30;101850.91;;;7.95;100.00
54262;BME280;40174;52.364;6.452;2023-04-16T00:28:57;101853.53;;;7.95;100.00
54262;BME280;40174;52.364;6.452;2023-04-16T00:31:26;101851.81;;;7.94;100.00
54262;BME280;40174;52.364;6.452;2023-04-16T00:33:54;101854.44;;;7.94;100.00
54262;BME280;40174;52.364;6.452;2023-04-16T00:36:22;101847.50;;;7.93;100.00
54262;BME280;40174;52.364;6.452;2023-04-16T00:38:48;101846.41;;;7.97;100.00
54262;BME280;40174;52.364;6.452;2023-04-16T00:41:15;101843.00;;;7.95;100.00
54262;BME280;40174;52.364;6.452;2023-04-16T00:43:42;101847.41;;;7.94;100.00
54262;BME280;40174;52.364;6.452;2023-04-16T00:46:09;101830.69;;;7.95;100.00
54262;BME280;40174;52.364;6.452;2023-04-16T00:48:37;101835.94;;;7.95;100.00
54262;BME280;40174;52.364;6.452;2023-04-16T00:51:05;101843.84;;;7.95;100.00
54262;BME280;40174;52.364;6.452;2023-04-16T00:53:32;101846.41;;;7.97;100.00
54262;BME280;40174;52.364;6.452;2023-04-16T00:55:59;101837.72;;;7.95;100.00
54262;BME280;40174;52.364;6.452;2023-04-16T00:58:27;101856.09;;;7.96;100.00
54262;BME280;40174;52.364;6.452;2023-04-16T01:00:56;101849.19;;;7.94;100.00
54262;BME280;40174;52.364;6.452;2023-04-16T01:03:22;101856.16;;;7.95;100.00
54262;BME280;40174;52.364;6.452;2023-04-16T01:05:48;101863.13;;;7.96;100.00
54262;BME280;40174;52.364;6.452;2023-04-16T01:08:15;101855.31;;;7.94;100.00
54262;BME280;40174;52.364;6.452;2023-04-16T01:10:42;101857.00;;;7.95;100.00
54262;BME280;40174;52.364;6.452;2023-04-16T01:13:08;101857.94;;;7.94;100.00
54262;BME280;40174;52.364;6.452;2023-04-16T01:15:35;101852.59;;;7.96;100.00
54262;BME280;40174;52.364;6.452;2023-04-16T01:18:11;101864.00;;;7.96;100.00
54262;BME280;40174;52.364;6.452;2023-04-16T01:20:39;101867.41;;;7.98;100.00
54262;BME280;40174;52.364;6.452;2023-04-16T01:23:06;101867.47;;;7.97;100.00
54262;BME280;40174;52.364;6.452;2023-04-16T01:25:32;101855.22;;;7.96;100.00
54262;BME280;40174;52.364;6.452;2023-04-16T01:27:58;101862.78;;;8.02;100.00
54262;BME280;40174;52.364;6.452;2023-04-16T01:30:25;101865.75;;;7.96;100.00
54262;BME280;40174;52.364;6.452;2023-04-16T01:33:02;101861.34;;;7.96;100.00
54262;BME280;40174;52.364;6.452;2023-04-16T01:42:27;101852.50;;;7.97;100.00
54262;BME280;40174;52.364;6.452;2023-04-16T01:44:54;101849.88;;;7.97;100.00
54262;BME280;40174;52.364;6.452;2023-04-16T01:47:20;101857.00;;;7.95;100.00
54262;BME280;40174;52.364;6.452;2023-04-16T01:49:47;101856.09;;;7.96;100.00
54262;BME280;40174;52.364;6.452;2023-04-16T01:52:13;101863.88;;;7.98;100.00
54262;BME280;40174;52.364;6.452;2023-04-16T02:02:33;101863.22;;;7.94;100.00
54262;BME280;40174;52.364;6.452;2023-04-16T02:31:54;101864.97;;;7.94;100.00
54262;BME280;40174;52.364;6.452;2023-04-16T02:34:22;101865.91;;;7.93;100.00
54262;BME280;40174;52.364;6.452;2023-04-16T02:36:48;101857.06;;;7.94;100.00
54262;BME280;40174;52.364;6.452;2023-04-16T02:39:15;101864.13;;;7.93;100.00
54262;BME280;40174;52.364;6.452;2023-04-16T02:52:30;101868.47;;;7.94;100.00
54262;BME280;40174;52.364;6.452;2023-04-16T02:54:57;101855.31;;;7.94;100.00
54262;BME280;40174;52.364;6.452;2023-04-16T02:57:24;101864.97;;;7.94;100.00
54262;BME280;40174;52.364;6.452;2023-04-16T02:59:51;101875.44;;;7.95;100.00
54262;BME280;40174;52.364;6.452;2023-04-16T03:02:17;101877.28;;;7.93;100.00
54262;BME280;40174;52.364;6.452;2023-04-16T03:04:44;101877.28;;;7.93;100.00
54262;BME280;40174;52.364;6.452;2023-04-16T03:07:10;101879.91;;;7.93;100.00
54262;BME280;40174;52.364;6.452;2023-04-16T03:09:39;101886.97;;;7.93;100.00
54262;BME280;40174;52.364;6.452;2023-04-16T03:12:05;101880.88;;;7.92;100.00
54262;BME280;40174;52.364;6.452;2023-04-16T03:14:32;101877.41;;;7.91;100.00
54262;BME280;40174;52.364;6.452;2023-04-16T03:16:58;101880.88;;;7.92;100.00
54262;BME280;40174;52.364;6.452;2023-04-16T03:19:24;101879.16;;;7.91;100.00
54262;BME280;40174;52.364;6.452;2023-04-16T03:21:51;101880.03;;;7.91;100.00
54262;BME280;40174;52.364;6.452;2023-04-16T03:24:17;101874.75;;;7.91;100.00
54262;BME280;40174;52.364;6.452;2023-04-16T03:26:48;101887.03;;;7.91;100.00
54262;BME280;40174;52.364;6.452;2023-04-16T03:29:15;101884.41;;;7.91;100.00
54262;BME280;40174;52.364;6.452;2023-04-16T03:31:42;101880.88;;;7.92;100.00
54262;BME280;40174;52.364;6.452;2023-04-16T03:34:08;101884.53;;;7.89;100.00
54262;BME280;40174;52.364;6.452;2023-04-16T03:36:37;101889.78;;;7.89;100.00
54262;BME280;40174;52.364;6.452;2023-04-16T03:39:03;101888.84;;;7.90;100.00
54262;BME280;40174;52.364;6.452;2023-04-16T03:41:30;101892.41;;;7.89;100.00
54262;BME280;40174;52.364;6.452;2023-04-16T03:43:58;101895.13;;;7.88;100.00
54262;BME280;40174;52.364;6.452;2023-04-16T03:46:25;101898.59;;;7.88;100.00
54262;BME280;40174;52.364;6.452;2023-04-16T03:48:51;101900.13;;;7.93;100.00
54262;BME280;40174;52.364;6.452;2023-04-16T03:51:18;101897.56;;;7.91;100.00
54262;BME280;40174;52.364;6.452;2023-04-16T03:53:44;101900.38;;;7.88;100.00
54262;BME280;40174;52.364;6.452;2023-04-16T03:56:12;101899.44;;;7.89;100.00
54262;BME280;40174;52.364;6.452;2023-04-16T03:58:39;101903.84;;;7.88;100.00
54262;BME280;40174;52.364;6.452;2023-04-16T04:01:08;101902.00;;;7.90;100.00
54262;BME280;40174;52.364;6.452;2023-04-16T04:03:35;101895.88;;;7.90;100.00
54262;BME280;40174;52.364;6.452;2023-04-16T04:06:05;101902.06;;;7.89;100.00
54262;BME280;40174;52.364;6.452;2023-04-16T04:08:31;101905.56;;;7.89;100.00
54262;BME280;40174;52.364;6.452;2023-04-16T04:10:58;101909.13;;;7.88;100.00
54262;BME280;40174;52.364;6.452;2023-04-16T04:13:25;101903.84;;;7.88;100.00
54262;BME280;40174;52.364;6.452;2023-04-16T04:15:52;101902.16;;;7.87;100.00
54262;BME280;40174;52.364;6.452;2023-04-16T04:18:20;101903.00;;;7.88;100.00
54262;BME280;40174;52.364;6.452;2023-04-16T04:20:47;101910.84;;;7.89;100.00
54262;BME280;40174;52.364;6.452;2023-04-16T04:23:16;101913.47;;;7.89;100.00
54262;BME280;40174;52.364;6.452;2023-04-16T04:25:44;101903.97;;;7.87;100.00
54262;BME280;40174;52.364;6.452;2023-04-16T04:28:11;101913.63;;;7.86;100.00
54262;BME280;40174;52.364;6.452;2023-04-16T04:30:37;101920.66;;;7.86;100.00
54262;BME280;40174;52.364;6.452;2023-04-16T04:33:04;101917.19;;;7.85;100.00
54262;BME280;40174;52.364;6.452;2023-04-16T04:35:32;101928.50;;;7.87;100.00
54262;BME280;40174;52.364;6.452;2023-04-16T04:38:00;101925.88;;;7.87;100.00
54262;BME280;40174;52.364;6.452;2023-04-16T04:40:26;101922.38;;;7.87;100.00
54262;BME280;40174;52.364;6.452;2023-04-16T04:42:53;101935.44;;;7.88;100.00
54262;BME280;40174;52.364;6.452;2023-04-16T04:45:21;101932.81;;;7.88;100.00
54262;BME280;40174;52.364;6.452;2023-04-16T04:47:50;101934.59;;;7.88;100.00
54262;BME280;40174;52.364;6.452;2023-04-16T04:50:17;101943.44;;;7.87;100.00
54262;BME280;40174;52.364;6.452;2023-04-16T04:52:45;101942.66;;;7.85;100.00
54262;BME280;40174;52.364;6.452;2023-04-16T04:55:11;101949.69;;;7.84;100.00
54262;BME280;40174;52.364;6.452;2023-04-16T04:57:40;101945.19;;;7.86;100.00
54262;BME280;40174;52.364;6.452;2023-04-16T05:00:07;101947.84;;;7.86;100.00
54262;BME280;40174;52.364;6.452;2023-04-16T05:02:42;101951.41;;;7.85;100.00
54262;BME280;40174;52.364;6.452;2023-04-16T05:05:08;101956.59;;;7.87;100.00
54262;BME280;40174;52.364;6.452;2023-04-16T05:07:35;101949.63;;;7.86;100.00
54262;BME280;40174;52.364;6.452;2023-04-16T05:10:02;101945.19;;;7.86;100.00
54262;BME280;40174;52.364;6.452;2023-04-16T05:12:29;101961.88;;;7.87;100.00
54262;BME280;40174;52.364;6.452;2023-04-16T05:14:55;101953.09;;;7.86;100.00
54262;BME280;40174;52.364;6.452;2023-04-16T05:17:22;101959.31;;;7.85;100.00
54262;BME280;40174;52.364;6.452;2023-04-16T05:19:48;101957.44;;;7.87;100.00
54262;BME280;40174;52.364;6.452;2023-04-16T05:22:14;101960.94;;;7.88;100.00
54262;BME280;40174;52.364;6.452;2023-04-16T05:24:43;101974.03;;;7.89;100.00
54262;BME280;40174;52.364;6.452;2023-04-16T05:27:10;101966.97;;;7.90;100.00
54262;BME280;40174;52.364;6.452;2023-04-16T05:29:37;101973.00;;;7.92;100.00
54262;BME280;40174;52.364;6.452;2023-04-16T05:32:03;101970.28;;;7.94;100.00
54262;BME280;40174;52.364;6.452;2023-04-16T05:34:30;101965.00;;;7.94;100.00
54262;BME280;40174;52.364;6.452;2023-04-16T05:36:56;101972.16;;;7.91;100.00
54262;BME280;40174;52.364;6.452;2023-04-16T05:39:22;101985.16;;;7.95;100.00
54262;BME280;40174;52.364;6.452;2023-04-16T05:41:49;101984.16;;;7.97;100.00
54262;BME280;40174;52.364;6.452;2023-04-16T05:44:17;101985.94;;;7.97;100.00
54262;BME280;40174;52.364;6.452;2023-04-16T05:46:43;101992.88;;;7.98;100.00
54262;BME280;40174;52.364;6.452;2023-04-16T05:49:09;101986.63;;;8.00;100.00
54262;BME280;40174;52.364;6.452;2023-04-16T05:51:36;101994.44;;;8.02;100.00
54262;BME280;40174;52.364;6.452;2023-04-16T05:54:03;101990.91;;;8.03;100.00
54262;BME280;40174;52.364;6.452;2023-04-16T05:56:29;101994.38;;;8.03;100.00
54262;BME280;40174;52.364;6.452;2023-04-16T05:58:55;101996.06;;;8.04;100.00
54262;BME280;40174;52.364;6.452;2023-04-16T06:01:23;102004.75;;;8.06;100.00
54262;BME280;40174;52.364;6.452;2023-04-16T06:03:50;102003.81;;;8.07;100.00
54262;BME280;40174;52.364;6.452;2023-04-16T06:06:16;102009.00;;;8.09;100.00
54262;BME280;40174;52.364;6.452;2023-04-16T06:08:42;102001.97;;;8.09;100.00
54262;BME280;40174;52.364;6.452;2023-04-16T06:11:09;102001.88;;;8.11;100.00
54262;BME280;40174;52.364;6.452;2023-04-16T06:13:36;102004.44;;;8.12;100.00
54262;BME280;40174;52.364;6.452;2023-04-16T06:16:02;101998.22;;;8.13;100.00
54262;BME280;40174;52.364;6.452;2023-04-16T06:18:30;102003.41;;;8.15;100.00
54262;BME280;40174;52.364;6.452;2023-04-16T06:20:56;102007.84;;;8.15;100.00
54262;BME280;40174;52.364;6.452;2023-04-16T06:23:23;102008.63;;;8.17;100.00
54262;BME280;40174;52.364;6.452;2023-04-16T06:25:50;102018.06;;;8.21;100.00
54262;BME280;40174;52.364;6.452;2023-04-16T06:28:16;102018.13;;;8.19;100.00
54262;BME280;40174;52.364;6.452;2023-04-16T06:30:43;102019.94;;;8.19;100.00
54262;BME280;40174;52.364;6.452;2023-04-16T06:33:09;102022.56;;;8.19;100.00
54262;BME280;40174;52.364;6.452;2023-04-16T06:35:37;102020.78;;;8.19;100.00
54262;BME280;40174;52.364;6.452;2023-04-16T06:38:03;102019.81;;;8.20;100.00
54262;BME280;40174;52.364;6.452;2023-04-16T06:40:30;102015.50;;;8.19;100.00
54262;BME280;40174;52.364;6.452;2023-04-16T06:42:56;102025.03;;;8.22;100.00
54262;BME280;40174;52.364;6.452;2023-04-16T06:45:22;102022.22;;;8.25;100.00
54262;BME280;40174;52.364;6.452;2023-04-16T06:47:49;102030.00;;;8.28;100.00
54262;BME280;40174;52.364;6.452;2023-04-16T06:50:16;102035.00;;;8.32;100.00
54262;BME280;40174;52.364;6.452;2023-04-16T06:52:44;102030.34;;;8.38;100.00
54262;BME280;40174;52.364;6.452;2023-04-16T06:55:10;102024.03;;;8.42;100.00
54262;BME280;40174;52.364;6.452;2023-04-16T06:57:37;102033.31;;;8.49;100.00
54262;BME280;40174;52.364;6.452;2023-04-16T07:00:05;102031.28;;;8.54;100.00
54262;BME280;40174;52.364;6.452;2023-04-16T07:02:32;102032.56;;;8.63;100.00
54262;BME280;40174;52.364;6.452;2023-04-16T07:04:58;102034.13;;;8.67;100.00
54262;BME280;40174;52.364;6.452;2023-04-16T07:07:25;102043.41;;;8.74;100.00
54262;BME280;40174;52.364;6.452;2023-04-16T07:09:52;102044.19;;;8.76;100.00
54262;BME280;40174;52.364;6.452;2023-04-16T07:12:19;102046.41;;;8.84;100.00
54262;BME280;40174;52.364;6.452;2023-04-16T07:14:45;102053.25;;;8.88;100.00
54262;BME280;40174;52.364;6.452;2023-04-16T07:17:12;102046.84;;;8.92;100.00
54262;BME280;40174;52.364;6.452;2023-04-16T07:19:38;102045.81;;;8.94;100.00
54262;BME280;40174;52.364;6.452;2023-04-16T07:22:05;102053.50;;;8.99;100.00
54262;BME280;40174;52.364;6.452;2023-04-16T07:24:31;102055.91;;;9.04;100.00
54262;BME280;40174;52.364;6.452;2023-04-16T07:26:59;102057.50;;;9.06;100.00
54262;BME280;40174;52.364;6.452;2023-04-16T07:29:25;102059.19;;;9.07;100.00
54262;BME280;40174;52.364;6.452;2023-04-16T07:31:52;102060.03;;;9.08;100.00
54262;BME280;40174;52.364;6.452;2023-04-16T07:34:18;102060.81;;;9.10;100.00
54262;BME280;40174;52.364;6.452;2023-04-16T07:36:44;102058.78;;;9.15;100.00
54262;BME280;40174;52.364;6.452;2023-04-16T07:39:11;102057.66;;;9.19;100.00
54262;BME280;40174;52.364;6.452;2023-04-16T07:41:37;102062.03;;;9.20;100.00
54262;BME280;40174;52.364;6.452;2023-04-16T07:44:06;102057.44;;;9.24;100.00
54262;BME280;40174;52.364;6.452;2023-04-16T07:46:32;102065.69;;;9.33;100.00
54262;BME280;40174;52.364;6.452;2023-04-16T07:48:59;102072.41;;;9.39;100.00
54262;BME280;40174;52.364;6.452;2023-04-16T07:51:25;102069.44;;;9.45;100.00
54262;BME280;40174;52.364;6.452;2023-04-16T07:53:52;102074.94;;;9.56;100.00
54262;BME280;40174;52.364;6.452;2023-04-16T07:56:18;102072.06;;;9.61;100.00
54262;BME280;40174;52.364;6.452;2023-04-16T07:58:44;102086.88;;;9.64;100.00
54262;BME280;40174;52.364;6.452;2023-04-16T08:01:12;102080.56;;;9.66;100.00
54262;BME280;40174;52.364;6.452;2023-04-16T08:03:39;102086.53;;;9.70;100.00
54262;BME280;40174;52.364;6.452;2023-04-16T08:06:05;102080.91;;;9.76;100.00
54262;BME280;40174;52.364;6.452;2023-04-16T08:08:32;102088.56;;;9.81;100.00
54262;BME280;40174;52.364;6.452;2023-04-16T08:10:58;102087.59;;;9.82;100.00
54262;BME280;40174;52.364;6.452;2023-04-16T08:13:24;102091.84;;;9.84;100.00
54262;BME280;40174;52.364;6.452;2023-04-16T08:15:51;102090.94;;;9.85;100.00
54262;BME280;40174;52.364;6.452;2023-04-16T08:18:19;102091.50;;;9.90;100.00
54262;BME280;40174;52.364;6.452;2023-04-16T08:20:45;102093.91;;;9.95;100.00
54262;BME280;40174;52.364;6.452;2023-04-16T08:23:11;102101.41;;;10.03;100.00
54262;BME280;40174;52.364;6.452;2023-04-16T08:25:38;102099.13;;;10.11;100.00
54262;BME280;40174;52.364;6.452;2023-04-16T08:28:04;102106.72;;;10.17;100.00
54262;BME280;40174;52.364;6.452;2023-04-16T08:30:31;102107.97;;;10.26;100.00
54262;BME280;40174;52.364;6.452;2023-04-16T08:32:57;102101.91;;;10.39;100.00
54262;BME280;40174;52.364;6.452;2023-04-16T08:35:25;102101.28;;;10.50;100.00
54262;BME280;40174;52.364;6.452;2023-04-16T08:37:52;102114.00;;;10.58;100.00
54262;BME280;40174;52.364;6.452;2023-04-16T08:40:18;102110.25;;;10.62;100.00
54262;BME280;40174;52.364;6.452;2023-04-16T08:42:47;102108.16;;;10.67;100.00
54262;BME280;40174;52.364;6.452;2023-04-16T08:45:14;102107.63;;;10.76;100.00
54262;BME280;40174;52.364;6.452;2023-04-16T08:47:43;102105.94;;;10.90;100.00
54262;BME280;40174;52.364;6.452;2023-04-16T08:50:10;102118.59;;;10.99;100.00
54262;BME280;40174;52.364;6.452;2023-04-16T08:52:42;102119.53;;;10.98;100.00
54262;BME280;40174;52.364;6.452;2023-04-16T08:55:11;102125.22;;;11.06;100.00
54262;BME280;40174;52.364;6.452;2023-04-16T08:57:37;102129.84;;;11.17;100.00
54262;BME280;40174;52.364;6.452;2023-04-16T09:00:06;102126.72;;;11.24;100.00
54262;BME280;40174;52.364;6.452;2023-04-16T09:02:33;102130.50;;;11.35;100.00
54262;BME280;40174;52.364;6.452;2023-04-16T09:04:59;102129.78;;;11.45;100.00
54262;BME280;40174;52.364;6.452;2023-04-16T09:07:26;102129.09;;;11.56;100.00
54262;BME280;40174;52.364;6.452;2023-04-16T09:09:55;102129.88;;;11.58;100.00
54262;BME280;40174;52.364;6.452;2023-04-16T09:12:23;102129.47;;;11.64;100.00
54262;BME280;40174;52.364;6.452;2023-04-16T09:14:50;102127.28;;;11.71;100.00
54262;BME280;40174;52.364;6.452;2023-04-16T09:17:16;102135.69;;;11.78;100.00
54262;BME280;40174;52.364;6.452;2023-04-16T09:19:43;102139.72;;;11.83;100.00
54262;BME280;40174;52.364;6.452;2023-04-16T09:22:10;102142.19;;;11.86;100.00
54262;BME280;40174;52.364;6.452;2023-04-16T09:24:36;102143.59;;;11.92;100.00
54262;BME280;40174;52.364;6.452;2023-04-16T09:27:04;102144.66;;;11.90;100.00
54262;BME280;40174;52.364;6.452;2023-04-16T09:29:33;102139.47;;;11.88;100.00
54262;BME280;40174;52.364;6.452;2023-04-16T09:32:01;102143.00;;;12.01;100.00
54262;BME280;40174;52.364;6.452;2023-04-16T09:34:27;102141.97;;;12.04;100.00
54262;BME280;40174;52.364;6.452;2023-04-16T09:36:54;102147.81;;;12.09;100.00
54262;BME280;40174;52.364;6.452;2023-04-16T09:39:21;102153.31;;;12.06;100.00
54262;BME280;40174;52.364;6.452;2023-04-16T09:41:48;102151.84;;;12.15;100.00
54262;BME280;40174;52.364;6.452;2023-04-16T09:44:18;102154.16;;;12.34;100.00
54262;BME280;40174;52.364;6.452;2023-04-16T09:46:44;102163.28;;;12.42;100.00
54262;BME280;40174;52.364;6.452;2023-04-16T09:49:12;102154.31;;;12.71;100.00
54262;BME280;40174;52.364;6.452;2023-04-16T09:51:39;102160.06;;;13.03;100.00
54262;BME280;40174;52.364;6.452;2023-04-16T09:54:06;102155.06;;;13.37;100.00
54262;BME280;40174;52.364;6.452;2023-04-16T09:56:33;102158.81;;;13.58;100.00
54262;BME280;40174;52.364;6.452;2023-04-16T09:59:04;102153.78;;;13.79;100.00
54262;BME280;40174;52.364;6.452;2023-04-16T10:01:32;102160.66;;;13.82;100.00
54262;BME280;40174;52.364;6.452;2023-04-16T10:03:58;102160.22;;;13.88;100.00
54262;BME280;40174;52.364;6.452;2023-04-16T10:06:25;102152.66;;;13.95;100.00
54262;BME280;40174;52.364;6.452;2023-04-16T10:08:54;102154.44;;;14.18;100.00
54262;BME280;40174;52.364;6.452;2023-04-16T10:11:21;102159.13;;;14.14;100.00
54262;BME280;40174;52.364;6.452;2023-04-16T10:13:47;102154.63;;;14.04;100.00
54262;BME280;40174;52.364;6.452;2023-04-16T10:16:14;102165.38;;;14.02;100.00
54262;BME280;40174;52.364;6.452;2023-04-16T10:18:43;102163.66;;;14.01;100.00
54262;BME280;40174;52.364;6.452;2023-04-16T10:21:10;102157.84;;;13.96;100.00
54262;BME280;40174;52.364;6.452;2023-04-16T10:23:37;102160.16;;;14.01;100.00
54262;BME280;40174;52.364;6.452;2023-04-16T10:26:04;102153.75;;;14.03;100.00
54262;BME280;40174;52.364;6.452;2023-04-16T10:28:31;102158.78;;;14.19;100.00
54262;BME280;40174;52.364;6.452;2023-04-16T10:31:00;102163.53;;;14.27;100.00
54262;BME280;40174;52.364;6.452;2023-04-16T10:33:27;102170.84;;;14.36;100.00
54262;BME280;40174;52.364;6.452;2023-04-16T10:36:06;102164.38;;;14.27;100.00
54262;BME280;40174;52.364;6.452;2023-04-16T10:38:34;102164.84;;;14.21;100.00
54262;BME280;40174;52.364;6.452;2023-04-16T10:41:03;102161.69;;;14.16;100.00
54262;BME280;40174;52.364;6.452;2023-04-16T10:43:30;102160.38;;;14.22;100.00
54262;BME280;40174;52.364;6.452;2023-04-16T10:45:56;102165.47;;;14.25;100.00
54262;BME280;40174;52.364;6.452;2023-04-16T10:48:23;102167.44;;;14.34;100.00
54262;BME280;40174;52.364;6.452;2023-04-16T10:50:53;102170.53;;;14.28;100.00
54262;BME280;40174;52.364;6.452;2023-04-16T10:53:22;102168.16;;;14.36;100.00
54262;BME280;40174;52.364;6.452;2023-04-16T10:55:55;102161.97;;;14.24;100.00
54262;BME280;40174;52.364;6.452;2023-04-16T10:58:25;102160.72;;;14.17;100.00
54262;BME280;40174;52.364;6.452;2023-04-16T11:00:52;102162.31;;;14.20;100.00
54262;BME280;40174;52.364;6.452;2023-04-16T11:03:18;102158.13;;;14.28;100.00
54262;BME280;40174;52.364;6.452;2023-04-16T11:05:45;102165.97;;;14.30;100.00
54262;BME280;40174;52.364;6.452;2023-04-16T11:08:12;102161.78;;;14.39;100.00
54262;BME280;40174;52.364;6.452;2023-04-16T11:10:40;102164.28;;;14.29;100.00
54262;BME280;40174;52.364;6.452;2023-04-16T11:13:07;102159.91;;;14.28;100.00
54262;BME280;40174;52.364;6.452;2023-04-16T11:15:33;102159.09;;;14.39;100.00
54262;BME280;40174;52.364;6.452;2023-04-16T11:18:00;102158.00;;;14.65;100.00
54262;BME280;40174;52.364;6.452;2023-04-16T11:20:28;102160.84;;;14.97;100.00
54262;BME280;40174;52.364;6.452;2023-04-16T11:22:55;102154.09;;;15.16;100.00
54262;BME280;40174;52.364;6.452;2023-04-16T11:25:22;102150.06;;;15.44;100.00
54262;BME280;40174;52.364;6.452;2023-04-16T11:27:50;102151.13;;;15.75;100.00
54262;BME280;40174;52.364;6.452;2023-04-16T11:30:18;102158.16;;;15.88;100.00
54262;BME280;40174;52.364;6.452;2023-04-16T11:32:45;102151.25;;;15.85;100.00
54262;BME280;40174;52.364;6.452;2023-04-16T11:35:12;102153.66;;;15.88;100.00
54262;BME280;40174;52.364;6.452;2023-04-16T11:37:40;102160.13;;;16.07;100.00
54262;BME280;40174;52.364;6.452;2023-04-16T11:40:07;102165.56;;;16.05;99.27
54262;BME280;40174;52.364;6.452;2023-04-16T11:42:34;102149.56;;;16.05;100.00
54262;BME280;40174;52.364;6.452;2023-04-16T11:45:03;102159.28;;;16.06;100.00
54262;BME280;40174;52.364;6.452;2023-04-16T11:47:30;102160.16;;;15.95;98.49
54262;BME280;40174;52.364;6.452;2023-04-16T11:49:56;102149.22;;;15.98;95.67
54262;BME280;40174;52.364;6.452;2023-04-16T11:52:23;102159.50;;;16.14;96.12
54262;BME280;40174;52.364;6.452;2023-04-16T11:54:51;102158.56;;;16.04;94.34
54262;BME280;40174;52.364;6.452;2023-04-16T11:57:22;102150.53;;;15.83;95.52
54262;BME280;40174;52.364;6.452;2023-04-16T11:59:49;102155.25;;;15.79;98.69
54262;BME280;40174;52.364;6.452;2023-04-16T12:02:17;102156.84;;;15.71;96.09
54262;BME280;40174;52.364;6.452;2023-04-16T12:04:43;102152.22;;;15.73;94.79
54262;BME280;40174;52.364;6.452;2023-04-16T12:07:10;102159.84;;;15.77;95.22
54262;BME280;40174;52.364;6.452;2023-04-16T12:09:38;102154.56;;;15.98;95.98
54262;BME280;40174;52.364;6.452;2023-04-16T12:12:05;102160.78;;;15.99;91.64
54262;BME280;40174;52.364;6.452;2023-04-16T12:14:49;102149.63;;;15.94;92.13
54262;BME280;40174;52.364;6.452;2023-04-16T12:17:18;102153.50;;;16.01;94.17
54262;BME280;40174;52.364;6.452;2023-04-16T12:19:48;102157.63;;;15.94;92.60
54262;BME280;40174;52.364;6.452;2023-04-16T12:22:15;102155.72;;;15.85;94.74
54262;BME280;40174;52.364;6.452;2023-04-16T12:24:41;102157.56;;;15.73;94.01
54262;BME280;40174;52.364;6.452;2023-04-16T12:27:07;102156.91;;;15.69;93.58
54262;BME280;40174;52.364;6.452;2023-04-16T12:29:34;102156.47;;;15.75;93.20
54262;BME280;40174;52.364;6.452;2023-04-16T12:32:02;102155.34;;;15.78;91.58
54262;BME280;40174;52.364;6.452;2023-04-16T12:34:30;102163.13;;;15.70;91.28
54262;BME280;40174;52.364;6.452;2023-04-16T12:37:04;102158.28;;;15.64;94.37
54262;BME280;40174;52.364;6.452;2023-04-16T12:39:31;102168.34;;;15.49;97.07
54262;BME280;40174;52.364;6.452;2023-04-16T12:41:57;102164.84;;;15.37;98.74
54262;BME280;40174;52.364;6.452;2023-04-16T12:44:24;102168.59;;;15.12;98.39
54262;BME280;40174;52.364;6.452;2023-04-16T12:46:51;102163.63;;;14.96;100.00
54262;BME280;40174;52.364;6.452;2023-04-16T12:49:18;102162.16;;;14.81;100.00
54262;BME280;40174;52.364;6.452;2023-04-16T12:51:46;102160.22;;;14.83;100.00
54262;BME280;40174;52.364;6.452;2023-04-16T12:54:13;102160.69;;;14.76;100.00
54262;BME280;40174;52.364;6.452;2023-04-16T12:56:39;102171.06;;;14.68;100.00
54262;BME280;40174;52.364;6.452;2023-04-16T12:59:06;102170.03;;;14.47;100.00
54262;BME280;40174;52.364;6.452;2023-04-16T13:01:34;102154.63;;;14.39;100.00
54262;BME280;40174;52.364;6.452;2023-04-16T13:04:01;102160.78;;;14.28;100.00
54262;BME280;40174;52.364;6.452;2023-04-16T13:06:28;102168.41;;;14.09;100.00
54262;BME280;40174;52.364;6.452;2023-04-16T13:08:56;102162.22;;;13.97;100.00
54262;BME280;40174;52.364;6.452;2023-04-16T13:11:23;102169.44;;;13.95;100.00
54262;BME280;40174;52.364;6.452;2023-04-16T13:13:49;102161.91;;;13.89;100.00
54262;BME280;40174;52.364;6.452;2023-04-16T13:16:16;102166.72;;;13.84;100.00
54262;BME280;40174;52.364;6.452;2023-04-16T13:18:42;102166.19;;;13.79;100.00
54262;BME280;40174;52.364;6.452;2023-04-16T13:21:09;102172.63;;;13.63;100.00
54262;BME280;40174;52.364;6.452;2023-04-16T13:23:36;102165.00;;;13.59;100.00
54262;BME280;40174;52.364;6.452;2023-04-16T13:26:04;102171.81;;;13.50;100.00
54262;BME280;40174;52.364;6.452;2023-04-16T13:28:30;102171.28;;;13.45;100.00
54262;BME280;40174;52.364;6.452;2023-04-16T13:30:57;102155.56;;;13.42;100.00
54262;BME280;40174;52.364;6.452;2023-04-16T13:33:24;102160.88;;;13.42;100.00
54262;BME280;40174;52.364;6.452;2023-04-16T13:35:51;102160.25;;;13.38;100.00
54262;BME280;40174;52.364;6.452;2023-04-16T13:38:17;102156.53;;;13.41;100.00
54262;BME280;40174;52.364;6.452;2023-04-16T13:40:44;102157.06;;;13.33;100.00